Time;durP1;ratioP1;P1;durP2;ratioP2;P2;SDS_P1;SDS_P2;PMS_P1;PMS_P2;Temp;Humidity;BMP_temperature;BMP_pressure;BME280_temperature;BME280_humidity;BME280_pressure;Samples;Min_cycle;Max_cycle;Signal;HPM_P1;HPM_P2
2022/10/07 00:00:20;;;;;;;2.65;2.17;;;8.90;99.90;;;;;;5008413;28;20033;-30
2022/10/07 00:02:46;;;;;;;2.22;2.03;;;8.80;99.90;;;;;;5024538;28;20121;-31
2022/10/07 00:05:11;;;;;;;2.55;2.35;;;8.90;99.90;;;;;;5008640;28;20053;-31
2022/10/07 00:07:37;;;;;;;3.80;2.65;;;8.90;99.90;;;;;;5026523;28;20726;-32
2022/10/07 00:10:03;;;;;;;2.63;2.42;;;8.90;99.90;;;;;;5025765;28;20043;-36
2022/10/07 00:12:29;;;;;;;2.30;2.20;;;8.90;99.90;;;;;;5028232;28;20561;-31
2022/10/07 00:14:54;;;;;;;2.60;2.17;;;8.70;99.90;;;;;;5006610;28;20216;-33
2022/10/07 00:17:20;;;;;;;2.33;2.13;;;8.70;99.90;;;;;;5023025;28;20033;-31
2022/10/07 00:19:46;;;;;;;2.45;2.28;;;8.80;99.90;;;;;;5027389;28;20394;-35
2022/10/07 00:22:12;;;;;;;5.75;2.22;;;8.80;99.90;;;;;;5027072;28;20029;-32
2022/10/07 00:24:37;;;;;;;2.83;2.03;;;8.80;99.90;;;;;;5023369;28;20029;-32
2022/10/07 00:27:03;;;;;;;2.30;2.20;;;8.80;99.90;;;;;;5028220;28;20034;-30
2022/10/07 00:29:29;;;;;;;3.85;2.70;;;8.80;99.90;;;;;;5023825;28;20026;-33
2022/10/07 00:31:54;;;;;;;3.63;2.10;;;8.90;99.90;;;;;;5027987;28;20041;-30
2022/10/07 00:34:20;;;;;;;2.53;2.33;;;8.90;99.90;;;;;;5005643;28;20052;-31
2022/10/07 00:36:48;;;;;;;2.40;2.20;;;8.90;99.90;;;;;;5022010;28;20576;-30
2022/10/07 00:39:14;;;;;;;;;;;8.90;99.90;;;;;;5025202;28;20030;-31
2022/10/07 00:41:51;;;;;;;5.65;2.30;;;8.90;99.90;;;;;;5027465;28;19986;-34
2022/10/07 00:44:34;;;;;;;2.65;2.33;;;8.90;99.90;;;;;;5023702;28;20776;-30
2022/10/07 00:47:27;;;;;;;2.38;2.15;;;8.90;99.90;;;;;;5025518;28;20482;-32
2022/10/07 00:50:04;;;;;;;3.47;2.38;;;8.90;99.90;;;;;;5000290;28;20578;-35
2022/10/07 00:52:33;;;;;;;2.70;2.10;;;8.90;99.90;;;;;;5024040;28;20036;-30
2022/10/07 00:55:04;;;;;;;4.03;2.50;;;8.90;99.90;;;;;;5027051;28;20048;-32
2022/10/07 00:57:31;;;;;;;3.47;2.65;;;8.90;99.90;;;;;;5025787;28;20037;-34
2022/10/07 00:59:58;;;;;;;2.75;2.50;;;8.90;99.90;;;;;;5021398;28;20029;-31
2022/10/07 01:02:25;;;;;;;3.85;2.92;;;8.90;99.90;;;;;;4992131;28;20057;-33
2022/10/07 01:04:53;;;;;;;8.13;2.67;;;8.90;99.90;;;;;;5010448;28;20104;-30
2022/10/07 01:07:20;;;;;;;3.85;2.35;;;8.80;99.90;;;;;;5029382;28;20075;-31
2022/10/07 01:09:51;;;;;;;4.78;2.63;;;8.70;99.90;;;;;;5028204;28;20749;-30
2022/10/07 01:12:29;;;;;;;2.25;2.05;;;8.70;99.90;;;;;;5021711;28;20103;-32
2022/10/07 01:15:44;;;;;;;2.83;2.08;;;8.60;99.90;;;;;;5021182;28;20376;-31
2022/10/07 01:18:34;;;;;;;2.10;1.90;;;8.40;99.90;;;;;;4954165;28;20072;-31
2022/10/07 01:21:25;;;;;;;26.67;2.38;;;8.50;99.90;;;;;;5020447;28;20547;-30
2022/10/07 01:24:43;;;;;;;3.97;1.67;;;8.30;99.90;;;;;;5066400;22;20062;-77
2022/10/07 01:27:21;;;;;;;1.83;1.70;;;8.30;99.90;;;;;;4971029;28;20189;-79
2022/10/07 01:29:56;;;;;;;1.90;1.80;;;8.30;99.90;;;;;;4970287;28;20097;-79
2022/10/07 01:32:30;;;;;;;1.98;1.80;;;8.20;99.90;;;;;;5015387;28;20048;-78
2022/10/07 01:34:58;;;;;;;1.83;1.73;;;8.20;99.90;;;;;;5033712;28;20030;-79
2022/10/07 01:37:29;;;;;;;3.72;1.85;;;8.20;99.90;;;;;;5034954;28;20124;-78
2022/10/07 01:40:00;;;;;;;2.20;2.10;;;8.20;99.90;;;;;;5032915;28;20477;-79
2022/10/07 01:42:26;;;;;;;2.67;1.98;;;8.20;99.90;;;;;;5034154;28;20497;-79
2022/10/07 01:44:55;;;;;;;1.70;1.60;;;8.20;99.90;;;;;;5034124;28;20116;-78
2022/10/07 01:47:21;;;;;;;2.40;1.98;;;8.20;99.90;;;;;;5033773;28;20047;-80
2022/10/07 01:49:47;;;;;;;2.00;1.83;;;8.20;99.90;;;;;;5031762;28;20025;-79
2022/10/07 01:52:42;;;;;;;1.63;1.52;;;8.30;99.90;;;;;;5031444;28;20022;-80
2022/10/07 01:55:27;;;;;;;3.88;1.90;;;8.30;99.90;;;;;;5038196;28;20039;-80
2022/10/07 01:58:05;;;;;;;1.52;1.42;;;8.30;99.90;;;;;;5035457;28;20056;-80
2022/10/07 02:00:32;;;;;;;3.20;1.60;;;8.20;99.90;;;;;;5035549;28;20389;-80
2022/10/07 02:03:20;;;;;;;1.60;1.50;;;8.20;99.90;;;;;;5020464;28;20023;-80
2022/10/07 02:06:05;;;;;;;2.70;1.70;;;8.30;99.90;;;;;;5036280;28;20032;-81
2022/10/07 02:08:39;;;;;;;1.80;1.70;;;8.20;99.90;;;;;;5036362;28;20061;-80
2022/10/07 02:11:29;;;;;;;1.58;1.48;;;8.20;99.90;;;;;;5036218;28;20036;-79
2022/10/07 02:14:16;;;;;;;2.60;1.50;;;8.20;99.90;;;;;;5036451;28;20025;-79
2022/10/07 02:16:52;;;;;;;2.00;1.58;;;8.30;99.90;;;;;;5038500;28;20055;-81
2022/10/07 02:19:22;;;;;;;4.10;1.77;;;8.40;99.90;;;;;;5038615;28;20119;-80
2022/10/07 02:21:51;;;;;;;1.80;1.55;;;8.50;99.90;;;;;;5032751;28;20034;-82
2022/10/07 02:24:21;;;;;;;1.65;1.55;;;8.50;99.90;;;;;;5037949;28;20063;-79
2022/10/07 02:26:50;;;;;;;1.80;1.70;;;8.60;99.90;;;;;;5037108;28;20033;-81
2022/10/07 02:29:18;;;;;;;2.17;1.98;;;8.60;99.90;;;;;;5036921;28;20040;-80
2022/10/07 02:31:46;;;;;;;2.03;1.92;;;8.70;99.90;;;;;;5018676;28;20050;-79
2022/10/07 02:34:14;;;;;;;1.95;1.80;;;8.70;99.90;;;;;;5037379;28;20108;-79
2022/10/07 02:36:44;;;;;;;;;;;8.70;99.90;;;;;;5036703;28;20026;-79
2022/10/07 02:39:11;;;;;;;2.83;1.88;;;8.70;99.90;;;;;;5039705;28;19920;-80
2022/10/07 02:41:40;;;;;;;1.83;1.73;;;8.80;99.90;;;;;;5040673;28;20033;-79
2022/10/07 02:44:38;;;;;;;4.22;2.00;;;8.80;99.90;;;;;;5036820;28;20068;-80
2022/10/07 02:47:22;;;;;;;3.97;2.28;;;8.80;99.90;;;;;;5020371;28;20465;-79
2022/10/07 02:49:54;;;;;;;2.10;1.98;;;8.80;99.90;;;;;;5016691;28;20053;-80
2022/10/07 02:52:21;;;;;;;2.60;2.40;;;8.90;99.90;;;;;;5035943;28;20030;-80
2022/10/07 02:54:57;;;;;;;2.38;2.13;;;8.90;99.90;;;;;;5039397;28;20246;-79
2022/10/07 02:57:25;;;;;;;2.42;2.22;;;8.90;99.90;;;;;;5036917;28;20041;-81
2022/10/07 02:59:53;;;;;;;3.97;2.10;;;8.90;99.90;;;;;;5038509;28;20037;-79
2022/10/07 03:02:37;;;;;;;3.63;2.55;;;8.90;99.90;;;;;;5031898;28;20042;-80
2022/10/07 03:05:05;;;;;;;2.15;1.95;;;9.00;99.90;;;;;;5036127;28;20477;-82
2022/10/07 03:07:31;;;;;;;4.05;2.60;;;9.00;99.90;;;;;;5037568;28;20068;-79
2022/10/07 03:09:57;;;;;;;4.03;2.53;;;9.10;99.90;;;;;;5031488;28;20455;-80
2022/10/07 03:12:23;;;;;;;2.95;2.58;;;9.10;99.90;;;;;;5034038;28;20033;-78
2022/10/07 03:14:48;;;;;;;2.67;2.47;;;9.10;99.90;;;;;;5016726;28;20033;-79
2022/10/07 03:17:16;;;;;;;2.70;2.50;;;9.20;99.90;;;;;;5028742;28;20105;-79
2022/10/07 03:19:42;;;;;;;2.60;2.40;;;9.10;99.90;;;;;;5034902;28;20033;-79
2022/10/07 03:22:07;;;;;;;3.72;2.70;;;9.10;99.90;;;;;;5035336;28;20018;-79
2022/10/07 03:24:33;;;;;;;4.88;2.50;;;9.20;99.90;;;;;;5034675;28;20058;-80
2022/10/07 03:26:58;;;;;;;3.00;2.70;;;9.20;99.90;;;;;;5037788;28;20025;-80
2022/10/07 03:29:25;;;;;;;2.72;2.53;;;9.20;99.90;;;;;;5038366;28;20029;-80
2022/10/07 03:31:53;;;;;;;3.20;2.60;;;9.20;99.90;;;;;;5037930;28;20042;-79
2022/10/07 03:34:19;;;;;;;2.92;2.67;;;9.30;99.90;;;;;;5030828;28;20488;-80
2022/10/07 03:36:45;;;;;;;2.90;2.60;;;9.30;99.90;;;;;;5035828;28;20057;-78
2022/10/07 03:39:10;;;;;;;4.15;2.58;;;9.30;99.90;;;;;;5035349;28;20044;-79
2022/10/07 03:41:36;;;;;;;3.05;2.75;;;9.30;99.90;;;;;;5037071;28;20021;-79
2022/10/07 03:44:02;;;;;;;3.92;2.55;;;9.40;99.90;;;;;;5019728;28;20030;-79
2022/10/07 03:46:28;;;;;;;3.10;2.67;;;9.40;99.90;;;;;;5035929;28;20059;-79
2022/10/07 03:48:54;;;;;;;3.00;2.70;;;9.40;99.90;;;;;;5034098;28;20124;-79
2022/10/07 03:51:19;;;;;;;5.63;3.08;;;9.40;99.90;;;;;;5030842;28;20497;-78
2022/10/07 03:53:45;;;;;;;3.10;2.90;;;9.40;99.90;;;;;;5033371;28;20094;-79
2022/10/07 03:56:11;;;;;;;2.63;2.42;;;9.40;99.90;;;;;;5037195;28;20049;-81
2022/10/07 03:58:38;;;;;;;6.15;2.70;;;9.40;99.90;;;;;;5031929;28;20033;-80
2022/10/07 04:01:13;;;;;;;2.97;2.78;;;9.50;99.90;;;;;;5031776;28;20045;-80
2022/10/07 04:03:40;;;;;;;2.90;2.60;;;9.50;99.90;;;;;;5033099;28;20045;-80
2022/10/07 04:06:05;;;;;;;4.03;2.42;;;9.50;99.90;;;;;;5033938;28;20618;-80
2022/10/07 04:08:32;;;;;;;3.13;2.83;;;9.50;99.90;;;;;;5032248;28;20469;-79
2022/10/07 04:10:59;;;;;;;3.30;2.85;;;9.60;99.90;;;;;;5034374;28;20072;-80
2022/10/07 04:13:25;;;;;;;2.80;2.60;;;9.50;99.90;;;;;;5033824;28;20400;-79
2022/10/07 04:15:51;;;;;;;3.00;2.70;;;9.60;99.90;;;;;;5034271;28;20040;-80
2022/10/07 04:18:17;;;;;;;4.80;2.83;;;9.70;99.90;;;;;;5034484;28;20053;-78
2022/10/07 04:20:42;;;;;;;3.17;2.75;;;9.70;99.90;;;;;;5032020;28;20025;-80
2022/10/07 04:23:08;;;;;;;3.53;3.22;;;9.70;99.90;;;;;;5015375;28;20040;-81
2022/10/07 04:25:34;;;;;;;3.55;2.55;;;9.60;99.90;;;;;;5011888;28;20073;-79
2022/10/07 04:28:05;;;;;;;3.38;3.05;;;9.70;99.90;;;;;;5035768;28;20098;-79
2022/10/07 04:30:36;;;;;;;3.25;2.80;;;9.60;99.90;;;;;;5032264;28;20032;-80
2022/10/07 04:33:03;;;;;;;3.95;2.90;;;9.60;99.90;;;;;;5034979;28;20025;-79
2022/10/07 04:35:29;;;;;;;3.45;2.80;;;9.60;99.90;;;;;;5031379;28;20037;-80
2022/10/07 04:37:55;;;;;;;4.18;3.15;;;9.60;99.90;;;;;;5031077;28;20030;-80
2022/10/07 04:40:22;;;;;;;3.67;3.25;;;9.70;99.90;;;;;;5033305;28;20496;-79
2022/10/07 04:45:34;;;;;;;3.90;3.05;;;9.70;99.90;;;;;;5031532;28;20045;-79
2022/10/07 04:48:01;;;;;;;4.93;2.80;;;9.70;99.90;;;;;;5032610;28;20029;-79
2022/10/07 04:50:27;;;;;;;3.15;2.85;;;9.80;99.90;;;;;;5033048;28;20951;-79
2022/10/07 04:52:53;;;;;;;3.40;3.10;;;9.80;99.90;;;;;;5029065;28;20021;-79
2022/10/07 04:55:19;;;;;;;6.97;3.20;;;9.80;99.90;;;;;;5012487;28;20056;-79
2022/10/07 04:57:44;;;;;;;3.67;2.58;;;9.80;99.90;;;;;;5033133;28;20022;-79
2022/10/07 05:00:10;;;;;;;4.10;3.20;;;9.80;99.90;;;;;;5032993;28;20089;-79
2022/10/07 05:02:36;;;;;;;5.60;3.10;;;9.90;99.90;;;;;;5030607;28;20069;-80
2022/10/07 05:05:02;;;;;;;3.83;2.97;;;9.90;99.90;;;;;;5029031;28;20064;-79
2022/10/07 05:07:28;;;;;;;3.58;2.90;;;9.90;99.90;;;;;;5033436;28;20037;-79
2022/10/07 05:09:54;;;;;;;4.85;2.58;;;9.90;99.90;;;;;;5028969;28;20064;-79
2022/10/07 05:12:19;;;;;;;4.35;3.08;;;9.90;99.90;;;;;;5028123;28;20033;-78
2022/10/07 05:14:45;;;;;;;3.53;2.83;;;9.90;99.90;;;;;;5031523;28;20025;-79
2022/10/07 05:17:12;;;;;;;6.22;3.83;;;9.90;99.90;;;;;;5026799;28;20049;-79
2022/10/07 05:19:38;;;;;;;3.35;2.70;;;10.00;99.90;;;;;;5026430;28;20573;-80
2022/10/07 05:22:04;;;;;;;3.28;2.60;;;10.00;99.90;;;;;;5029330;28;20116;-80
2022/10/07 05:24:31;;;;;;;3.05;2.72;;;10.00;99.90;;;;;;5028234;28;20057;-80
2022/10/07 05:26:56;;;;;;;3.80;3.05;;;10.10;99.90;;;;;;5032542;28;20095;-79
2022/10/07 05:29:23;;;;;;;4.60;3.10;;;10.10;99.90;;;;;;5038006;28;20030;-79
2022/10/07 05:31:48;;;;;;;5.32;3.00;;;10.10;99.90;;;;;;5032675;28;20049;-81
2022/10/07 05:34:15;;;;;;;4.85;2.95;;;10.10;99.90;;;;;;5037002;28;20025;-79
2022/10/07 05:36:41;;;;;;;4.57;2.88;;;10.10;99.90;;;;;;5038506;28;20038;-82
2022/10/07 05:39:09;;;;;;;3.63;2.88;;;10.10;99.90;;;;;;5031123;28;20427;-79
2022/10/07 05:41:35;;;;;;;3.63;2.80;;;10.10;99.90;;;;;;5025552;28;20473;-77
2022/10/07 05:44:00;;;;;;;5.13;2.67;;;10.10;99.90;;;;;;5031087;28;20025;-80
2022/10/07 05:46:26;;;;;;;3.63;2.78;;;10.20;99.90;;;;;;5038810;28;20034;-79
2022/10/07 05:48:52;;;;;;;4.95;3.00;;;10.10;99.90;;;;;;5036352;28;20044;-80
2022/10/07 05:51:19;;;;;;;3.60;2.97;;;10.20;99.90;;;;;;5035970;28;20071;-79
2022/10/07 05:53:45;;;;;;;5.18;2.88;;;10.20;99.90;;;;;;5037321;28;20034;-78
2022/10/07 05:56:18;;;;;;;4.25;3.05;;;10.20;99.90;;;;;;5033636;28;20065;-79
2022/10/07 05:58:44;;;;;;;4.10;2.97;;;10.20;99.90;;;;;;5034774;28;20104;-79
2022/10/07 06:01:16;;;;;;;3.42;2.70;;;10.20;99.90;;;;;;5034537;28;20041;-79
2022/10/07 06:03:46;;;;;;;4.93;3.05;;;10.20;99.90;;;;;;5037897;28;20121;-79
2022/10/07 06:06:12;;;;;;;8.82;3.30;;;10.30;99.90;;;;;;5035291;28;20370;-81
2022/10/07 06:08:38;;;;;;;4.28;2.92;;;10.40;99.90;;;;;;5034815;28;20105;-80
2022/10/07 06:13:53;;;;;;;3.80;3.40;;;10.30;99.90;;;;;;5033396;28;20076;-82
2022/10/07 06:16:19;;;;;;;5.38;3.30;;;10.20;99.90;;;;;;5031592;28;20029;-83
2022/10/07 06:18:46;;;;;;;4.53;3.15;;;10.20;99.90;;;;;;5030329;28;20029;-80
2022/10/07 06:21:18;;;;;;;6.40;3.60;;;10.30;99.90;;;;;;5013495;28;20030;-82
2022/10/07 06:23:50;;;;;;;4.13;3.42;;;10.30;99.90;;;;;;5032814;28;20025;-79
2022/10/07 06:26:15;;;;;;;5.35;3.30;;;10.30;99.90;;;;;;5029344;28;20112;-79
2022/10/07 06:28:41;;;;;;;4.28;3.20;;;10.30;99.90;;;;;;5035727;28;20171;-79
2022/10/07 06:31:12;;;;;;;4.72;3.38;;;10.40;99.90;;;;;;5027630;28;20034;-79
2022/10/07 06:33:39;;;;;;;6.18;3.15;;;10.40;99.90;;;;;;5036273;28;20034;-79
2022/10/07 06:36:07;;;;;;;4.25;2.88;;;10.50;99.90;;;;;;5031668;28;20037;-78
2022/10/07 06:38:33;;;;;;;3.70;3.25;;;10.50;99.90;;;;;;5034781;28;20053;-78
2022/10/07 06:41:00;;;;;;;5.47;4.15;;;10.50;99.90;;;;;;5037053;28;20097;-79
2022/10/07 06:43:27;;;;;;;5.28;3.72;;;10.60;99.90;;;;;;5035411;28;20080;-79
2022/10/07 06:46:00;;;;;;;6.72;3.80;;;10.60;99.90;;;;;;5019860;28;20599;-79
2022/10/07 06:48:27;;;;;;;4.93;3.78;;;10.60;99.90;;;;;;5038857;28;20036;-79
2022/10/07 06:50:54;;;;;;;3.90;3.47;;;10.70;99.90;;;;;;5039550;28;20064;-79
2022/10/07 06:53:20;;;;;;;7.00;4.28;;;10.70;99.90;;;;;;5037255;28;20072;-79
2022/10/07 06:55:46;;;;;;;6.90;4.32;;;10.80;99.90;;;;;;5038307;28;20134;-79
2022/10/07 06:58:12;;;;;;;7.43;4.38;;;10.80;99.90;;;;;;5039070;28;20104;-79
2022/10/07 07:00:38;;;;;;;5.78;4.10;;;10.90;99.90;;;;;;5038844;28;20714;-80
2022/10/07 07:03:04;;;;;;;6.05;4.32;;;11.00;99.90;;;;;;5037761;28;20033;-79
2022/10/07 07:05:38;;;;;;;6.38;4.53;;;11.00;99.90;;;;;;5037081;28;20381;-80
2022/10/07 07:08:04;;;;;;;8.80;5.05;;;11.10;99.90;;;;;;5002762;28;20107;-79
2022/10/07 07:10:29;;;;;;;6.45;5.00;;;11.10;99.90;;;;;;5041125;28;20377;-79
2022/10/07 07:12:55;;;;;;;10.45;5.05;;;11.20;99.90;;;;;;5029996;28;20029;-80
2022/10/07 07:15:21;;;;;;;7.07;5.18;;;11.20;99.90;;;;;;5036280;28;20022;-80
2022/10/07 07:17:47;;;;;;;7.53;5.85;;;11.30;99.90;;;;;;5035941;28;20049;-79
2022/10/07 07:20:13;;;;;;;9.52;5.85;;;11.40;99.90;;;;;;5034953;28;20328;-80
2022/10/07 07:22:39;;;;;;;7.90;6.28;;;11.50;99.90;;;;;;5033792;28;20034;-81
2022/10/07 07:25:08;;;;;;;10.27;5.78;;;11.50;99.90;;;;;;5037146;28;20080;-82
2022/10/07 07:27:33;;;;;;;;;;;11.50;99.90;;;;;;5034594;28;20029;-79
2022/10/07 07:29:59;;;;;;;8.00;5.68;;;11.50;99.90;;;;;;5037521;28;19915;-79
2022/10/07 07:32:25;;;;;;;11.57;5.97;;;11.60;99.90;;;;;;5016295;28;20096;-79
2022/10/07 07:34:51;;;;;;;7.57;6.18;;;11.60;99.90;;;;;;5036498;28;20437;-80
2022/10/07 07:37:16;;;;;;;8.73;6.32;;;11.70;99.90;;;;;;5039524;28;20366;-79
2022/10/07 07:39:43;;;;;;;8.70;6.53;;;11.70;99.90;;;;;;5035966;28;20061;-80
2022/10/07 07:42:09;;;;;;;8.90;6.03;;;11.80;99.90;;;;;;5035698;28;20097;-79
2022/10/07 07:44:36;;;;;;;8.27;6.60;;;11.90;99.90;;;;;;5038240;28;20073;-79
2022/10/07 07:47:02;;;;;;;9.52;6.85;;;12.10;99.90;;;;;;5039275;28;20037;-79
2022/10/07 07:49:30;;;;;;;9.00;7.20;;;12.20;99.90;;;;;;5037298;28;20473;-79
2022/10/07 07:51:57;;;;;;;9.48;6.38;;;12.20;99.90;;;;;;5037229;28;20037;-80
2022/10/07 07:54:25;;;;;;;9.68;6.25;;;12.40;99.90;;;;;;5037656;28;20392;-79
2022/10/07 07:56:55;;;;;;;;;;;12.50;99.90;;;;;;5038132;28;20045;-79
2022/10/07 07:59:21;;;;;;;8.52;5.80;;;12.70;99.90;;;;;;5040690;28;19908;-79
2022/10/07 08:01:47;;;;;;;8.20;6.00;;;12.80;99.90;;;;;;5039114;28;20069;-79
2022/10/07 08:04:14;;;;;;;7.95;6.20;;;12.90;99.90;;;;;;5039083;28;20053;-79
2022/10/07 08:06:40;;;;;;;8.25;6.40;;;13.00;99.90;;;;;;5018394;28;20042;-79
2022/10/07 08:09:05;;;;;;;9.23;6.20;;;13.10;99.90;;;;;;5032546;28;20072;-80
2022/10/07 08:11:31;;;;;;;10.80;7.20;;;13.10;99.90;;;;;;5038728;28;20089;-80
2022/10/07 08:13:58;;;;;;;9.15;6.63;;;13.10;99.90;;;;;;5033810;28;20017;-79
2022/10/07 08:16:26;;;;;;;9.07;6.40;;;13.30;99.90;;;;;;5036537;28;20029;-79
2022/10/07 08:18:54;;;;;;;10.27;6.45;;;13.40;99.90;;;;;;5033571;28;20112;-80
2022/10/07 08:21:21;;;;;;;9.15;6.78;;;13.50;99.90;;;;;;5028448;28;20033;-78
2022/10/07 08:23:51;;;;;;;9.98;6.13;;;13.70;99.90;;;;;;5029684;28;20033;-80
2022/10/07 08:26:17;;;;;;;8.75;6.28;;;13.90;99.90;;;;;;5035691;28;20029;-79
2022/10/07 08:28:43;;;;;;;8.40;6.40;;;14.10;99.90;;;;;;5035445;28;20033;-79
2022/10/07 08:31:14;;;;;;;7.43;5.78;;;14.10;99.90;;;;;;5033071;28;20493;-78
2022/10/07 08:33:43;;;;;;;6.10;5.40;;;14.40;99.90;;;;;;5031724;28;20377;-79
2022/10/07 08:36:13;;;;;;;8.48;5.60;;;14.60;99.90;;;;;;5033583;28;20098;-80
2022/10/07 08:38:40;;;;;;;8.45;5.65;;;14.60;99.90;;;;;;5037946;28;20068;-80
2022/10/07 08:41:05;;;;;;;9.85;5.90;;;14.60;99.90;;;;;;5037794;28;20037;-79
2022/10/07 08:43:32;;;;;;;6.35;5.68;;;14.70;99.90;;;;;;5032695;28;20079;-78
2022/10/07 08:46:00;;;;;;;7.63;5.75;;;14.80;99.90;;;;;;5036113;28;20083;-79
2022/10/07 08:48:32;;;;;;;7.88;5.93;;;15.00;99.90;;;;;;5034665;28;20037;-79
2022/10/07 08:51:11;;;;;;;8.00;5.45;;;15.10;99.90;;;;;;5030990;28;20037;-79
2022/10/07 08:53:37;;;;;;;8.32;5.55;;;15.20;99.90;;;;;;5034173;28;20021;-79
2022/10/07 08:56:08;;;;;;;9.15;6.25;;;15.00;99.90;;;;;;5036649;28;20381;-79
2022/10/07 08:59:11;;;;;;;9.48;6.60;;;14.90;99.90;;;;;;5032385;28;20037;-79
2022/10/07 09:02:09;;;;;;;10.25;5.97;;;14.70;99.90;;;;;;5034203;28;20048;-79
2022/10/07 09:05:00;;;;;;;8.40;6.25;;;14.70;99.90;;;;;;5025097;28;20034;-81
2022/10/07 09:07:37;;;;;;;10.10;5.88;;;15.00;99.90;;;;;;5031797;28;20042;-78
2022/10/07 09:10:09;;;;;;;14.15;6.38;;;15.20;99.90;;;;;;5035731;28;20051;-80
2022/10/07 09:13:12;;;;;;;12.45;6.60;;;15.30;99.90;;;;;;5032401;28;20030;-79
2022/10/07 09:15:44;;;;;;;8.25;5.95;;;15.50;99.90;;;;;;5031386;28;20037;-81
2022/10/07 09:18:21;;;;;;;9.05;5.93;;;15.50;99.90;;;;;;5035741;28;20408;-78
2022/10/07 09:20:52;;;;;;;10.52;6.28;;;15.70;99.90;;;;;;5035723;28;20025;-80
2022/10/07 09:23:38;;;;;;;8.18;6.28;;;15.70;99.90;;;;;;5032449;28;21341;-80
2022/10/07 09:26:15;;;;;;;7.20;5.35;;;15.80;99.90;;;;;;5032245;28;20046;-79
2022/10/07 09:28:41;;;;;;;8.52;6.13;;;15.80;99.90;;;;;;5036783;28;20037;-79
2022/10/07 09:31:13;;;;;;;12.15;6.68;;;15.80;99.90;;;;;;5033534;28;20048;-79
2022/10/07 09:33:45;;;;;;;9.60;5.65;;;15.80;99.90;;;;;;5029418;28;20041;-80
2022/10/07 09:36:17;;;;;;;10.75;6.25;;;16.00;99.90;;;;;;5032244;28;20026;-79
2022/10/07 09:38:45;;;;;;;10.13;5.93;;;16.10;99.90;;;;;;5037290;28;20080;-80
2022/10/07 09:41:31;;;;;;;8.20;5.85;;;16.20;99.90;;;;;;5036463;28;20087;-79
2022/10/07 09:44:14;;;;;;;9.75;5.70;;;16.40;99.90;;;;;;5029834;28;20037;-81
2022/10/07 09:46:40;;;;;;;9.90;6.05;;;16.70;99.90;;;;;;5034197;28;20066;-79
2022/10/07 09:49:06;;;;;;;10.82;6.00;;;17.00;99.90;;;;;;5019068;28;20068;-79
2022/10/07 09:51:34;;;;;;;9.88;6.38;;;17.00;99.90;;;;;;5037296;28;20120;-79
2022/10/07 09:54:17;;;;;;;10.60;6.57;;;17.00;99.90;;;;;;5035950;28;20037;-78
2022/10/07 09:56:45;;;;;;;10.45;5.95;;;17.10;99.90;;;;;;5040000;28;20396;-78
2022/10/07 09:59:21;;;;;;;10.30;6.32;;;16.80;99.90;;;;;;5029617;28;20025;-77
2022/10/07 10:01:55;;;;;;;10.77;6.60;;;16.40;99.90;;;;;;5031022;28;20046;-79
2022/10/07 10:04:36;;;;;;;9.52;6.90;;;16.40;99.90;;;;;;5036841;28;20753;-78
2022/10/07 10:07:24;;;;;;;10.27;6.45;;;16.50;99.90;;;;;;5036666;28;20026;-78
2022/10/07 10:09:56;;;;;;;9.10;6.47;;;16.90;99.90;;;;;;5035079;28;20093;-78
2022/10/07 10:12:24;;;;;;;7.88;5.78;;;17.10;99.90;;;;;;5036634;28;20067;-78
2022/10/07 10:15:00;;;;;;;10.65;6.70;;;17.20;99.90;;;;;;5037476;28;20097;-78
2022/10/07 10:17:35;;;;;;;10.52;6.57;;;17.10;99.90;;;;;;5037721;28;20085;-79
2022/10/07 10:20:22;;;;;;;8.10;5.38;;;17.30;99.90;;;;;;5040919;28;20086;-78
2022/10/07 10:22:48;;;;;;;9.23;7.10;;;17.40;99.90;;;;;;5034568;28;20091;-78
2022/10/07 10:28:10;;;;;;;7.65;5.53;;;17.50;99.90;;;;;;5036849;28;20032;-78
2022/10/07 10:30:46;;;;;;;10.07;6.40;;;17.60;99.90;;;;;;5036284;28;20037;-78
2022/10/07 10:33:24;;;;;;;10.65;7.25;;;17.50;99.90;;;;;;5038890;28;20461;-78
2022/10/07 10:35:57;;;;;;;10.27;6.20;;;17.40;99.90;;;;;;5038753;28;20116;-77
2022/10/07 10:38:38;;;;;;;10.27;6.72;;;17.10;99.90;;;;;;5038227;28;21695;-78
2022/10/07 10:41:27;;;;;;;9.60;6.63;;;17.20;99.90;;;;;;5035811;28;20033;-78
2022/10/07 10:44:02;;;;;;;10.23;6.38;;;17.30;99.90;;;;;;5038826;28;20029;-78
2022/10/07 10:46:50;;;;;;;9.77;6.88;;;17.40;99.90;;;;;;5034974;28;20040;-79
2022/10/07 10:49:32;;;;;;;8.27;5.80;;;17.60;99.90;;;;;;5038331;28;20034;-79
2022/10/07 10:52:33;;;;;;;11.10;6.68;;;17.90;99.90;;;;;;5038516;28;20025;-80
2022/10/07 10:55:35;;;;;;;11.13;6.90;;;18.10;99.90;;;;;;5035883;28;20073;-80
2022/10/07 10:58:11;;;;;;;8.65;5.47;;;18.10;99.90;;;;;;5014459;28;20049;-80
2022/10/07 11:00:49;;;;;;;6.30;4.43;;;18.10;99.90;;;;;;5037532;28;20038;-80
2022/10/07 11:03:38;;;;;;;7.00;4.65;;;18.10;99.90;;;;;;5037069;28;20059;-80
2022/10/07 11:06:08;;;;;;;9.32;4.65;;;18.10;99.90;;;;;;5030133;28;20066;-79
2022/10/07 11:08:36;;;;;;;7.18;4.65;;;18.00;99.90;;;;;;5034346;28;20030;-79
2022/10/07 11:11:13;;;;;;;5.13;4.53;;;17.90;99.90;;;;;;5035814;28;20041;-79
2022/10/07 11:13:53;;;;;;;8.15;5.45;;;17.70;99.90;;;;;;5039616;28;20029;-80
2022/10/07 11:16:38;;;;;;;6.90;4.97;;;17.60;99.90;;;;;;5035903;28;20044;-79
2022/10/07 11:19:33;;;;;;;8.85;4.90;;;17.80;99.90;;;;;;5038629;28;20049;-80
2022/10/07 11:22:00;;;;;;;7.32;4.25;;;18.10;99.90;;;;;;5032348;28;20110;-80
2022/10/07 11:24:35;;;;;;;9.32;5.28;;;18.20;99.90;;;;;;5038928;28;20064;-80
2022/10/07 11:27:19;;;;;;;7.22;5.13;;;17.80;99.90;;;;;;5036718;28;20037;-79
2022/10/07 11:30:01;;;;;;;8.80;5.10;;;17.80;99.90;;;;;;5037506;28;20040;-80
2022/10/07 11:32:37;;;;;;;9.32;5.82;;;17.90;99.90;;;;;;5039453;28;20034;-79
2022/10/07 11:35:22;;;;;;;7.05;5.32;;;17.90;99.90;;;;;;5039832;28;20041;-79
2022/10/07 11:37:59;;;;;;;7.72;5.75;;;18.00;99.90;;;;;;5030365;28;20385;-81
2022/10/07 11:40:30;;;;;;;12.15;6.32;;;18.10;99.90;;;;;;5037719;28;20539;-81
2022/10/07 11:42:57;;;;;;;6.43;5.03;;;18.10;99.90;;;;;;5030921;28;20035;-83
2022/10/07 11:45:32;;;;;;;6.60;4.47;;;18.10;99.90;;;;;;5035431;28;20025;-81
2022/10/07 11:48:13;;;;;;;8.30;5.28;;;18.00;99.90;;;;;;5036134;28;20120;-83
2022/10/07 11:50:45;;;;;;;7.43;5.47;;;18.10;99.90;;;;;;5036019;28;20033;-79
2022/10/07 11:53:27;;;;;;;9.68;6.20;;;18.00;99.90;;;;;;5035750;28;20033;-79
2022/10/07 11:56:03;;;;;;;8.82;5.75;;;17.60;99.90;;;;;;5034002;28;20053;-79
2022/10/07 11:58:37;;;;;;;10.88;6.07;;;17.60;99.90;;;;;;5036894;28;20064;-79
2022/10/07 12:01:25;;;;;;;10.52;7.40;;;17.70;99.90;;;;;;5038023;28;20079;-79
2022/10/07 12:03:53;;;;;;;9.88;6.43;;;17.60;99.90;;;;;;5036735;28;20130;-79
2022/10/07 12:06:19;;;;;;;9.52;6.10;;;17.60;99.90;;;;;;5037995;28;20064;-79
2022/10/07 12:08:45;;;;;;;9.13;5.60;;;17.80;99.90;;;;;;5035385;28;20474;-78
2022/10/07 12:11:11;;;;;;;9.02;5.60;;;17.90;99.90;;;;;;5035024;28;20033;-78
2022/10/07 12:13:39;;;;;;;10.02;5.70;;;18.00;99.90;;;;;;5037774;28;20043;-80
2022/10/07 12:16:30;;;;;;;9.25;5.68;;;18.00;99.90;;;;;;5033312;28;20097;-79
2022/10/07 12:19:11;;;;;;;11.35;6.47;;;18.10;99.90;;;;;;5035652;28;20465;-78
2022/10/07 12:21:58;;;;;;;8.80;6.10;;;18.00;99.90;;;;;;5034766;28;20093;-78
2022/10/07 12:24:25;;;;;;;9.82;6.03;;;18.00;99.90;;;;;;5034580;28;20052;-79
2022/10/07 12:26:56;;;;;;;7.68;5.53;;;17.90;99.90;;;;;;5036552;28;20104;-78
2022/10/07 12:29:57;;;;;;;9.63;6.00;;;18.00;99.90;;;;;;5035737;28;20029;-79
2022/10/07 12:32:51;;;;;;;8.35;5.43;;;18.20;99.90;;;;;;5034395;28;20052;-79
2022/10/07 12:35:35;;;;;;;8.10;5.95;;;18.20;99.90;;;;;;5034053;28;20075;-79
2022/10/07 12:38:37;;;;;;;9.77;6.07;;;18.00;99.90;;;;;;5030830;28;20029;-79
2022/10/07 12:41:10;;;;;;;6.97;4.88;;;18.00;99.90;;;;;;5036591;28;20029;-80
2022/10/07 12:43:44;;;;;;;8.88;5.65;;;18.00;99.90;;;;;;5035933;28;20045;-79
2022/10/07 12:46:15;;;;;;;8.95;5.55;;;17.90;99.90;;;;;;5034184;28;20528;-80
2022/10/07 12:48:47;;;;;;;8.88;5.65;;;17.80;99.90;;;;;;5035965;28;20033;-79
2022/10/07 12:51:21;;;;;;;10.13;6.13;;;17.80;99.90;;;;;;5037181;28;20112;-79
2022/10/07 12:53:50;;;;;;;8.32;6.10;;;17.60;99.90;;;;;;5038240;28;20044;-79
2022/10/07 12:56:21;;;;;;;7.32;5.72;;;17.40;99.90;;;;;;5034235;28;20039;-79
2022/10/07 12:59:48;;;;;;;7.28;5.78;;;17.30;99.90;;;;;;5034300;28;20072;-79
2022/10/07 13:02:58;;;;;;;5.85;5.05;;;17.40;99.90;;;;;;5034081;28;20041;-79
2022/10/07 13:05:27;;;;;;;7.47;5.32;;;17.50;99.90;;;;;;5033278;28;20113;-79
2022/10/07 13:08:18;;;;;;;8.13;5.30;;;17.50;99.90;;;;;;5037303;28;20038;-79
2022/10/07 13:11:17;;;;;;;6.97;5.72;;;17.50;99.90;;;;;;5035907;28;20063;-79
2022/10/07 13:13:58;;;;;;;11.23;5.30;;;17.40;99.90;;;;;;5033591;28;20038;-79
2022/10/07 13:16:38;;;;;;;10.07;7.05;;;17.60;99.90;;;;;;5033852;28;20039;-79
2022/10/07 13:19:19;;;;;;;12.23;7.72;;;17.60;99.90;;;;;;5034574;28;20061;-79
2022/10/07 13:21:56;;;;;;;9.43;6.85;;;17.60;99.90;;;;;;5035774;28;20063;-79
2022/10/07 13:24:27;;;;;;;10.73;7.23;;;17.60;99.90;;;;;;5033635;28;20130;-79